sensor_id;sensor_type;location;lat;lon;timestamp;P1;durP1;ratioP1;P2;durP2;ratioP2
3783;SDS011;1907;49.238;9.262;2022-08-19T00:00:15;12.10;;;11.70;;
3783;SDS011;1907;49.238;9.262;2022-08-19T00:02:42;13.87;;;13.13;;
3783;SDS011;1907;49.238;9.262;2022-08-19T00:05:08;13.77;;;12.33;;
3783;SDS011;1907;49.238;9.262;2022-08-19T00:07:35;13.67;;;12.90;;
3783;SDS011;1907;49.238;9.262;2022-08-19T00:10:02;14.00;;;13.17;;
3783;SDS011;1907;49.238;9.262;2022-08-19T00:12:32;13.63;;;12.93;;
3783;SDS011;1907;49.238;9.262;2022-08-19T00:14:58;13.10;;;12.30;;
3783;SDS011;1907;49.238;9.262;2022-08-19T00:17:24;14.07;;;13.27;;
3783;SDS011;1907;49.238;9.262;2022-08-19T00:19:50;13.63;;;12.90;;
3783;SDS011;1907;49.238;9.262;2022-08-19T00:22:15;15.13;;;13.63;;
3783;SDS011;1907;49.238;9.262;2022-08-19T00:24:43;16.17;;;15.07;;
3783;SDS011;1907;49.238;9.262;2022-08-19T00:27:10;13.67;;;13.07;;
3783;SDS011;1907;49.238;9.262;2022-08-19T00:29:37;14.80;;;13.37;;
3783;SDS011;1907;49.238;9.262;2022-08-19T00:32:03;12.97;;;12.20;;
3783;SDS011;1907;49.238;9.262;2022-08-19T00:34:29;12.40;;;11.90;;
3783;SDS011;1907;49.238;9.262;2022-08-19T00:36:55;14.00;;;13.03;;
3783;SDS011;1907;49.238;9.262;2022-08-19T00:39:22;16.73;;;14.53;;
3783;SDS011;1907;49.238;9.262;2022-08-19T00:41:49;13.97;;;13.13;;
3783;SDS011;1907;49.238;9.262;2022-08-19T00:44:20;12.67;;;12.17;;
3783;SDS011;1907;49.238;9.262;2022-08-19T00:46:48;12.67;;;11.97;;
3783;SDS011;1907;49.238;9.262;2022-08-19T00:51:48;16.13;;;13.53;;
3783;SDS011;1907;49.238;9.262;2022-08-19T00:54:22;15.77;;;14.33;;
3783;SDS011;1907;49.238;9.262;2022-08-19T00:56:49;16.60;;;15.27;;
3783;SDS011;1907;49.238;9.262;2022-08-19T00:59:15;16.03;;;14.73;;
3783;SDS011;1907;49.238;9.262;2022-08-19T01:01:43;15.00;;;14.13;;
3783;SDS011;1907;49.238;9.262;2022-08-19T01:04:10;14.87;;;13.93;;
3783;SDS011;1907;49.238;9.262;2022-08-19T01:06:37;16.23;;;14.63;;
3783;SDS011;1907;49.238;9.262;2022-08-19T01:09:04;14.57;;;13.87;;
3783;SDS011;1907;49.238;9.262;2022-08-19T01:11:31;14.57;;;13.80;;
3783;SDS011;1907;49.238;9.262;2022-08-19T01:14:00;14.37;;;13.67;;
3783;SDS011;1907;49.238;9.262;2022-08-19T01:16:26;14.50;;;13.73;;
3783;SDS011;1907;49.238;9.262;2022-08-19T01:18:54;12.67;;;12.10;;
3783;SDS011;1907;49.238;9.262;2022-08-19T01:23:46;14.17;;;13.13;;
3783;SDS011;1907;49.238;9.262;2022-08-19T01:26:14;14.83;;;13.90;;
3783;SDS011;1907;49.238;9.262;2022-08-19T01:28:43;14.07;;;13.40;;
3783;SDS011;1907;49.238;9.262;2022-08-19T01:31:12;15.00;;;14.13;;
3783;SDS011;1907;49.238;9.262;2022-08-19T01:33:43;15.80;;;14.80;;
3783;SDS011;1907;49.238;9.262;2022-08-19T01:36:12;15.00;;;13.90;;
3783;SDS011;1907;49.238;9.262;2022-08-19T01:38:41;14.77;;;13.83;;
3783;SDS011;1907;49.238;9.262;2022-08-19T01:41:08;16.07;;;14.63;;
3783;SDS011;1907;49.238;9.262;2022-08-19T01:43:35;15.13;;;14.33;;
3783;SDS011;1907;49.238;9.262;2022-08-19T01:46:02;15.63;;;14.53;;
3783;SDS011;1907;49.238;9.262;2022-08-19T01:48:32;15.33;;;14.23;;
3783;SDS011;1907;49.238;9.262;2022-08-19T01:51:01;14.90;;;13.57;;
3783;SDS011;1907;49.238;9.262;2022-08-19T01:53:27;13.77;;;13.07;;
3783;SDS011;1907;49.238;9.262;2022-08-19T01:55:52;16.13;;;15.07;;
3783;SDS011;1907;49.238;9.262;2022-08-19T01:58:19;15.40;;;14.53;;
3783;SDS011;1907;49.238;9.262;2022-08-19T02:00:49;14.93;;;14.23;;
3783;SDS011;1907;49.238;9.262;2022-08-19T02:03:15;14.03;;;13.20;;
3783;SDS011;1907;49.238;9.262;2022-08-19T02:05:42;14.90;;;14.10;;
3783;SDS011;1907;49.238;9.262;2022-08-19T02:08:09;16.73;;;15.77;;
3783;SDS011;1907;49.238;9.262;2022-08-19T02:10:38;14.73;;;13.97;;
3783;SDS011;1907;49.238;9.262;2022-08-19T02:13:08;17.60;;;16.20;;
3783;SDS011;1907;49.238;9.262;2022-08-19T02:15:34;16.90;;;15.90;;
3783;SDS011;1907;49.238;9.262;2022-08-19T02:18:00;16.57;;;15.43;;
3783;SDS011;1907;49.238;9.262;2022-08-19T02:20:25;16.83;;;15.83;;
3783;SDS011;1907;49.238;9.262;2022-08-19T02:22:51;16.40;;;15.20;;
3783;SDS011;1907;49.238;9.262;2022-08-19T02:25:17;18.80;;;17.13;;
3783;SDS011;1907;49.238;9.262;2022-08-19T02:27:43;15.17;;;14.17;;
3783;SDS011;1907;49.238;9.262;2022-08-19T02:30:10;18.23;;;16.93;;
3783;SDS011;1907;49.238;9.262;2022-08-19T02:32:38;18.23;;;16.93;;
3783;SDS011;1907;49.238;9.262;2022-08-19T02:35:04;17.97;;;16.87;;
3783;SDS011;1907;49.238;9.262;2022-08-19T02:37:30;16.33;;;15.33;;
3783;SDS011;1907;49.238;9.262;2022-08-19T02:40:14;17.50;;;16.40;;
3783;SDS011;1907;49.238;9.262;2022-08-19T02:42:42;19.00;;;17.80;;
3783;SDS011;1907;49.238;9.262;2022-08-19T02:45:08;18.73;;;17.40;;
3783;SDS011;1907;49.238;9.262;2022-08-19T02:47:34;18.67;;;17.27;;
3783;SDS011;1907;49.238;9.262;2022-08-19T02:50:00;17.87;;;16.07;;
3783;SDS011;1907;49.238;9.262;2022-08-19T02:52:27;18.87;;;17.40;;
3783;SDS011;1907;49.238;9.262;2022-08-19T02:54:53;20.00;;;18.50;;
3783;SDS011;1907;49.238;9.262;2022-08-19T02:57:21;16.40;;;15.40;;
3783;SDS011;1907;49.238;9.262;2022-08-19T02:59:47;20.13;;;18.00;;
3783;SDS011;1907;49.238;9.262;2022-08-19T03:02:13;16.43;;;15.43;;
3783;SDS011;1907;49.238;9.262;2022-08-19T03:04:39;17.83;;;16.63;;
3783;SDS011;1907;49.238;9.262;2022-08-19T03:07:04;19.30;;;17.63;;
3783;SDS011;1907;49.238;9.262;2022-08-19T03:09:30;19.50;;;17.77;;
3783;SDS011;1907;49.238;9.262;2022-08-19T03:11:55;20.10;;;18.20;;
3783;SDS011;1907;49.238;9.262;2022-08-19T03:14:21;21.97;;;19.63;;
3783;SDS011;1907;49.238;9.262;2022-08-19T03:16:48;20.87;;;19.37;;
3783;SDS011;1907;49.238;9.262;2022-08-19T03:19:16;21.80;;;19.80;;
3783;SDS011;1907;49.238;9.262;2022-08-19T03:21:44;19.97;;;17.87;;
3783;SDS011;1907;49.238;9.262;2022-08-19T03:24:10;24.30;;;21.80;;
3783;SDS011;1907;49.238;9.262;2022-08-19T03:26:40;20.37;;;18.63;;
3783;SDS011;1907;49.238;9.262;2022-08-19T03:29:08;20.73;;;19.23;;
3783;SDS011;1907;49.238;9.262;2022-08-19T03:31:36;19.50;;;17.87;;
3783;SDS011;1907;49.238;9.262;2022-08-19T03:34:02;19.47;;;17.80;;
3783;SDS011;1907;49.238;9.262;2022-08-19T03:36:28;20.40;;;18.40;;
3783;SDS011;1907;49.238;9.262;2022-08-19T03:38:55;20.70;;;19.10;;
3783;SDS011;1907;49.238;9.262;2022-08-19T03:41:24;21.50;;;19.50;;
3783;SDS011;1907;49.238;9.262;2022-08-19T03:43:56;20.93;;;18.83;;
3783;SDS011;1907;49.238;9.262;2022-08-19T03:46:24;21.97;;;19.90;;
3783;SDS011;1907;49.238;9.262;2022-08-19T03:48:52;21.33;;;19.00;;
3783;SDS011;1907;49.238;9.262;2022-08-19T03:51:22;21.50;;;19.40;;
3783;SDS011;1907;49.238;9.262;2022-08-19T03:53:50;21.90;;;19.90;;
3783;SDS011;1907;49.238;9.262;2022-08-19T03:56:16;21.87;;;20.07;;
3783;SDS011;1907;49.238;9.262;2022-08-19T03:58:42;21.77;;;19.87;;
3783;SDS011;1907;49.238;9.262;2022-08-19T04:01:09;21.93;;;19.80;;
3783;SDS011;1907;49.238;9.262;2022-08-19T04:03:36;23.20;;;21.20;;
3783;SDS011;1907;49.238;9.262;2022-08-19T04:06:36;23.93;;;21.80;;
3783;SDS011;1907;49.238;9.262;2022-08-19T04:08:57;22.83;;;20.73;;
3783;SDS011;1907;49.238;9.262;2022-08-19T04:11:25;20.53;;;18.60;;
3783;SDS011;1907;49.238;9.262;2022-08-19T04:13:53;18.97;;;17.33;;
3783;SDS011;1907;49.238;9.262;2022-08-19T04:16:20;20.63;;;18.83;;
3783;SDS011;1907;49.238;9.262;2022-08-19T04:18:48;22.20;;;20.37;;
3783;SDS011;1907;49.238;9.262;2022-08-19T04:21:18;22.47;;;20.30;;
3783;SDS011;1907;49.238;9.262;2022-08-19T04:23:46;19.63;;;17.93;;
3783;SDS011;1907;49.238;9.262;2022-08-19T04:26:17;21.97;;;19.97;;
3783;SDS011;1907;49.238;9.262;2022-08-19T04:28:44;20.17;;;18.27;;
3783;SDS011;1907;49.238;9.262;2022-08-19T04:31:14;21.07;;;19.23;;
3783;SDS011;1907;49.238;9.262;2022-08-19T04:33:42;21.10;;;19.20;;
3783;SDS011;1907;49.238;9.262;2022-08-19T04:36:08;21.50;;;19.70;;
3783;SDS011;1907;49.238;9.262;2022-08-19T04:38:42;23.10;;;20.90;;
3783;SDS011;1907;49.238;9.262;2022-08-19T04:41:07;21.67;;;19.77;;
3783;SDS011;1907;49.238;9.262;2022-08-19T04:43:51;20.20;;;18.20;;
3783;SDS011;1907;49.238;9.262;2022-08-19T04:46:17;19.43;;;17.70;;
3783;SDS011;1907;49.238;9.262;2022-08-19T04:48:44;20.83;;;18.53;;
3783;SDS011;1907;49.238;9.262;2022-08-19T04:51:11;22.87;;;20.63;;
3783;SDS011;1907;49.238;9.262;2022-08-19T04:53:39;22.07;;;20.13;;
3783;SDS011;1907;49.238;9.262;2022-08-19T04:56:07;21.73;;;19.83;;
3783;SDS011;1907;49.238;9.262;2022-08-19T04:58:38;25.30;;;20.70;;
3783;SDS011;1907;49.238;9.262;2022-08-19T05:01:06;22.43;;;20.40;;
3783;SDS011;1907;49.238;9.262;2022-08-19T05:03:35;22.50;;;20.13;;
3783;SDS011;1907;49.238;9.262;2022-08-19T05:06:05;24.00;;;21.70;;
3783;SDS011;1907;49.238;9.262;2022-08-19T05:08:32;23.30;;;21.10;;
3783;SDS011;1907;49.238;9.262;2022-08-19T05:11:00;27.60;;;21.47;;
3783;SDS011;1907;49.238;9.262;2022-08-19T05:13:26;23.17;;;20.97;;
3783;SDS011;1907;49.238;9.262;2022-08-19T05:15:58;24.73;;;22.43;;
3783;SDS011;1907;49.238;9.262;2022-08-19T05:18:24;24.43;;;22.03;;
3783;SDS011;1907;49.238;9.262;2022-08-19T05:21:13;23.67;;;21.50;;
3783;SDS011;1907;49.238;9.262;2022-08-19T05:23:59;22.20;;;20.23;;
3783;SDS011;1907;49.238;9.262;2022-08-19T05:26:25;22.80;;;20.50;;
3783;SDS011;1907;49.238;9.262;2022-08-19T05:28:52;24.43;;;22.10;;
3783;SDS011;1907;49.238;9.262;2022-08-19T05:31:18;25.80;;;21.20;;
3783;SDS011;1907;49.238;9.262;2022-08-19T05:33:44;26.40;;;20.67;;
3783;SDS011;1907;49.238;9.262;2022-08-19T05:36:10;25.00;;;22.73;;
3783;SDS011;1907;49.238;9.262;2022-08-19T05:38:35;21.47;;;19.63;;
3783;SDS011;1907;49.238;9.262;2022-08-19T05:41:08;23.30;;;20.80;;
3783;SDS011;1907;49.238;9.262;2022-08-19T05:43:35;22.80;;;20.40;;
3783;SDS011;1907;49.238;9.262;2022-08-19T05:46:02;22.10;;;20.30;;
3783;SDS011;1907;49.238;9.262;2022-08-19T05:48:29;22.77;;;20.47;;
3783;SDS011;1907;49.238;9.262;2022-08-19T05:50:56;22.97;;;20.67;;
3783;SDS011;1907;49.238;9.262;2022-08-19T05:53:24;23.03;;;20.67;;
3783;SDS011;1907;49.238;9.262;2022-08-19T05:55:50;21.57;;;19.40;;
3783;SDS011;1907;49.238;9.262;2022-08-19T05:58:16;21.90;;;20.00;;
3783;SDS011;1907;49.238;9.262;2022-08-19T06:00:42;21.13;;;19.27;;
3783;SDS011;1907;49.238;9.262;2022-08-19T06:03:09;27.93;;;20.90;;
3783;SDS011;1907;49.238;9.262;2022-08-19T06:05:35;21.40;;;19.80;;
3783;SDS011;1907;49.238;9.262;2022-08-19T06:08:00;22.00;;;20.10;;
3783;SDS011;1907;49.238;9.262;2022-08-19T06:10:27;22.00;;;19.90;;
3783;SDS011;1907;49.238;9.262;2022-08-19T06:12:53;26.03;;;21.77;;
3783;SDS011;1907;49.238;9.262;2022-08-19T06:15:19;22.37;;;20.17;;
3783;SDS011;1907;49.238;9.262;2022-08-19T06:17:44;22.33;;;19.97;;
3783;SDS011;1907;49.238;9.262;2022-08-19T06:20:11;20.87;;;19.20;;
3783;SDS011;1907;49.238;9.262;2022-08-19T06:22:39;22.10;;;19.80;;
3783;SDS011;1907;49.238;9.262;2022-08-19T06:25:06;23.40;;;20.20;;
3783;SDS011;1907;49.238;9.262;2022-08-19T06:27:34;23.47;;;20.40;;
3783;SDS011;1907;49.238;9.262;2022-08-19T06:30:00;21.40;;;19.17;;
3783;SDS011;1907;49.238;9.262;2022-08-19T06:32:27;21.53;;;18.37;;
3783;SDS011;1907;49.238;9.262;2022-08-19T06:34:53;21.23;;;19.17;;
3783;SDS011;1907;49.238;9.262;2022-08-19T06:37:19;22.27;;;19.83;;
3783;SDS011;1907;49.238;9.262;2022-08-19T06:39:46;18.00;;;16.30;;
3783;SDS011;1907;49.238;9.262;2022-08-19T06:42:12;19.10;;;17.50;;
3783;SDS011;1907;49.238;9.262;2022-08-19T06:44:41;19.40;;;17.40;;
3783;SDS011;1907;49.238;9.262;2022-08-19T06:47:08;20.00;;;18.10;;
3783;SDS011;1907;49.238;9.262;2022-08-19T06:49:36;19.90;;;18.27;;
3783;SDS011;1907;49.238;9.262;2022-08-19T06:52:02;21.10;;;19.30;;
3783;SDS011;1907;49.238;9.262;2022-08-19T06:54:28;20.80;;;18.07;;
3783;SDS011;1907;49.238;9.262;2022-08-19T06:56:54;20.50;;;18.60;;
3783;SDS011;1907;49.238;9.262;2022-08-19T06:59:22;17.73;;;16.30;;
3783;SDS011;1907;49.238;9.262;2022-08-19T07:01:53;19.30;;;17.63;;
3783;SDS011;1907;49.238;9.262;2022-08-19T07:04:22;17.40;;;16.00;;
3783;SDS011;1907;49.238;9.262;2022-08-19T07:06:55;17.07;;;15.83;;
3783;SDS011;1907;49.238;9.262;2022-08-19T07:09:31;19.47;;;17.63;;
3783;SDS011;1907;49.238;9.262;2022-08-19T07:11:57;18.93;;;17.30;;
3783;SDS011;1907;49.238;9.262;2022-08-19T07:14:24;17.47;;;15.97;;
3783;SDS011;1907;49.238;9.262;2022-08-19T07:16:52;17.47;;;15.63;;
3783;SDS011;1907;49.238;9.262;2022-08-19T07:19:19;17.17;;;15.53;;
3783;SDS011;1907;49.238;9.262;2022-08-19T07:21:47;17.40;;;15.77;;
3783;SDS011;1907;49.238;9.262;2022-08-19T07:24:17;15.73;;;14.50;;
3783;SDS011;1907;49.238;9.262;2022-08-19T07:26:44;16.57;;;15.20;;
3783;SDS011;1907;49.238;9.262;2022-08-19T07:29:10;14.47;;;13.70;;
3783;SDS011;1907;49.238;9.262;2022-08-19T07:31:37;14.37;;;13.47;;
3783;SDS011;1907;49.238;9.262;2022-08-19T07:34:03;13.50;;;12.63;;
3783;SDS011;1907;49.238;9.262;2022-08-19T07:36:34;12.93;;;12.30;;
3783;SDS011;1907;49.238;9.262;2022-08-19T07:39:04;14.70;;;13.20;;
3783;SDS011;1907;49.238;9.262;2022-08-19T07:41:36;13.30;;;12.67;;
3783;SDS011;1907;49.238;9.262;2022-08-19T07:44:02;13.50;;;12.90;;
3783;SDS011;1907;49.238;9.262;2022-08-19T07:46:32;14.23;;;12.97;;
3783;SDS011;1907;49.238;9.262;2022-08-19T07:48:59;14.13;;;12.87;;
3783;SDS011;1907;49.238;9.262;2022-08-19T07:51:26;13.50;;;12.33;;
3783;SDS011;1907;49.238;9.262;2022-08-19T07:53:52;13.07;;;12.27;;
3783;SDS011;1907;49.238;9.262;2022-08-19T07:56:19;12.93;;;11.83;;
3783;SDS011;1907;49.238;9.262;2022-08-19T07:58:47;12.20;;;11.53;;
3783;SDS011;1907;49.238;9.262;2022-08-19T08:01:18;12.10;;;11.33;;
3783;SDS011;1907;49.238;9.262;2022-08-19T08:03:46;14.37;;;13.37;;
3783;SDS011;1907;49.238;9.262;2022-08-19T08:06:31;13.80;;;13.00;;
3783;SDS011;1907;49.238;9.262;2022-08-19T08:09:17;12.73;;;12.00;;
3783;SDS011;1907;49.238;9.262;2022-08-19T08:12:30;13.63;;;12.70;;
3783;SDS011;1907;49.238;9.262;2022-08-19T08:17:07;14.60;;;13.60;;
3783;SDS011;1907;49.238;9.262;2022-08-19T08:19:34;14.90;;;13.23;;
3783;SDS011;1907;49.238;9.262;2022-08-19T08:22:01;31.83;;;13.20;;
3783;SDS011;1907;49.238;9.262;2022-08-19T08:24:28;13.03;;;12.43;;
3783;SDS011;1907;49.238;9.262;2022-08-19T08:26:56;16.77;;;12.63;;
3783;SDS011;1907;49.238;9.262;2022-08-19T08:29:24;12.80;;;11.90;;
3783;SDS011;1907;49.238;9.262;2022-08-19T08:31:52;13.70;;;12.37;;
3783;SDS011;1907;49.238;9.262;2022-08-19T08:34:18;12.67;;;12.07;;
3783;SDS011;1907;49.238;9.262;2022-08-19T08:36:45;14.40;;;13.40;;
3783;SDS011;1907;49.238;9.262;2022-08-19T08:39:15;12.50;;;11.60;;
3783;SDS011;1907;49.238;9.262;2022-08-19T08:42:18;16.50;;;15.00;;
3783;SDS011;1907;49.238;9.262;2022-08-19T08:47:31;12.33;;;11.30;;
3783;SDS011;1907;49.238;9.262;2022-08-19T08:50:04;14.03;;;13.23;;
3783;SDS011;1907;49.238;9.262;2022-08-19T08:52:41;13.70;;;12.50;;
3783;SDS011;1907;49.238;9.262;2022-08-19T08:55:12;13.10;;;12.13;;
3783;SDS011;1907;49.238;9.262;2022-08-19T09:00:17;12.13;;;11.43;;
3783;SDS011;1907;49.238;9.262;2022-08-19T09:02:46;13.67;;;12.10;;
3783;SDS011;1907;49.238;9.262;2022-08-19T09:05:12;10.93;;;10.43;;
3783;SDS011;1907;49.238;9.262;2022-08-19T09:10:32;12.20;;;11.30;;
3783;SDS011;1907;49.238;9.262;2022-08-19T09:13:20;13.87;;;12.50;;
3783;SDS011;1907;49.238;9.262;2022-08-19T09:15:56;11.33;;;10.43;;
3783;SDS011;1907;49.238;9.262;2022-08-19T09:18:52;10.83;;;10.30;;
3783;SDS011;1907;49.238;9.262;2022-08-19T09:21:22;15.93;;;11.30;;
3783;SDS011;1907;49.238;9.262;2022-08-19T09:23:50;12.60;;;11.73;;
3783;SDS011;1907;49.238;9.262;2022-08-19T09:26:17;12.33;;;11.57;;
3783;SDS011;1907;49.238;9.262;2022-08-19T09:28:46;12.27;;;11.50;;
3783;SDS011;1907;49.238;9.262;2022-08-19T09:31:14;12.70;;;11.80;;
3783;SDS011;1907;49.238;9.262;2022-08-19T09:33:41;11.13;;;10.50;;
3783;SDS011;1907;49.238;9.262;2022-08-19T09:36:09;10.53;;;10.00;;
3783;SDS011;1907;49.238;9.262;2022-08-19T09:38:36;11.50;;;10.60;;
3783;SDS011;1907;49.238;9.262;2022-08-19T09:41:06;8.73;;;8.40;;
3783;SDS011;1907;49.238;9.262;2022-08-19T09:43:33;11.53;;;10.40;;
3783;SDS011;1907;49.238;9.262;2022-08-19T09:46:04;9.50;;;8.90;;
3783;SDS011;1907;49.238;9.262;2022-08-19T09:48:32;10.07;;;8.83;;
3783;SDS011;1907;49.238;9.262;2022-08-19T09:51:05;9.43;;;8.90;;
3783;SDS011;1907;49.238;9.262;2022-08-19T09:53:33;6.30;;;5.70;;
3783;SDS011;1907;49.238;9.262;2022-08-19T09:55:59;7.60;;;5.93;;
3783;SDS011;1907;49.238;9.262;2022-08-19T09:58:25;6.33;;;5.67;;
3783;SDS011;1907;49.238;9.262;2022-08-19T10:00:53;6.50;;;6.20;;
3783;SDS011;1907;49.238;9.262;2022-08-19T10:03:19;6.97;;;6.30;;
3783;SDS011;1907;49.238;9.262;2022-08-19T10:05:45;5.33;;;5.13;;
3783;SDS011;1907;49.238;9.262;2022-08-19T10:08:14;6.37;;;6.07;;
3783;SDS011;1907;49.238;9.262;2022-08-19T10:10:50;6.23;;;5.87;;
3783;SDS011;1907;49.238;9.262;2022-08-19T10:13:17;5.60;;;5.40;;
3783;SDS011;1907;49.238;9.262;2022-08-19T10:15:47;6.23;;;5.47;;
3783;SDS011;1907;49.238;9.262;2022-08-19T10:18:15;4.97;;;4.43;;
3783;SDS011;1907;49.238;9.262;2022-08-19T10:20:42;5.53;;;5.27;;
3783;SDS011;1907;49.238;9.262;2022-08-19T10:23:10;5.80;;;5.47;;
3783;SDS011;1907;49.238;9.262;2022-08-19T10:25:36;4.97;;;4.67;;
3783;SDS011;1907;49.238;9.262;2022-08-19T10:28:03;6.10;;;5.30;;
3783;SDS011;1907;49.238;9.262;2022-08-19T10:30:30;5.00;;;4.80;;
3783;SDS011;1907;49.238;9.262;2022-08-19T10:32:57;6.10;;;5.60;;
3783;SDS011;1907;49.238;9.262;2022-08-19T10:35:22;4.73;;;4.63;;
3783;SDS011;1907;49.238;9.262;2022-08-19T10:37:51;4.80;;;4.60;;
3783;SDS011;1907;49.238;9.262;2022-08-19T10:40:17;5.63;;;5.43;;
3783;SDS011;1907;49.238;9.262;2022-08-19T10:42:42;46.10;;;18.00;;
3783;SDS011;1907;49.238;9.262;2022-08-19T10:45:09;3.60;;;3.50;;
3783;SDS011;1907;49.238;9.262;2022-08-19T10:47:35;4.53;;;4.23;;
3783;SDS011;1907;49.238;9.262;2022-08-19T10:50:02;13.27;;;7.70;;
3783;SDS011;1907;49.238;9.262;2022-08-19T10:52:47;4.37;;;4.27;;
3783;SDS011;1907;49.238;9.262;2022-08-19T10:55:14;3.57;;;3.17;;
3783;SDS011;1907;49.238;9.262;2022-08-19T10:57:58;4.90;;;4.50;;
3783;SDS011;1907;49.238;9.262;2022-08-19T11:00:24;3.77;;;3.47;;
3783;SDS011;1907;49.238;9.262;2022-08-19T11:02:51;3.27;;;2.97;;
3783;SDS011;1907;49.238;9.262;2022-08-19T11:05:17;4.20;;;3.33;;
3783;SDS011;1907;49.238;9.262;2022-08-19T11:07:44;4.57;;;4.17;;
3783;SDS011;1907;49.238;9.262;2022-08-19T11:10:11;3.87;;;3.67;;
3783;SDS011;1907;49.238;9.262;2022-08-19T11:12:39;3.73;;;2.80;;
3783;SDS011;1907;49.238;9.262;2022-08-19T11:15:07;4.67;;;4.23;;
3783;SDS011;1907;49.238;9.262;2022-08-19T11:17:36;3.00;;;2.90;;
3783;SDS011;1907;49.238;9.262;2022-08-19T11:20:08;2.60;;;2.50;;
3783;SDS011;1907;49.238;9.262;2022-08-19T11:22:35;3.00;;;2.90;;
3783;SDS011;1907;49.238;9.262;2022-08-19T11:25:01;3.93;;;3.73;;
3783;SDS011;1907;49.238;9.262;2022-08-19T11:27:27;13.40;;;3.53;;
3783;SDS011;1907;49.238;9.262;2022-08-19T11:29:53;3.67;;;3.47;;
3783;SDS011;1907;49.238;9.262;2022-08-19T11:32:19;4.17;;;3.97;;
3783;SDS011;1907;49.238;9.262;2022-08-19T11:34:45;3.27;;;3.17;;
3783;SDS011;1907;49.238;9.262;2022-08-19T11:37:10;3.50;;;3.20;;
3783;SDS011;1907;49.238;9.262;2022-08-19T11:39:36;2.97;;;2.87;;
3783;SDS011;1907;49.238;9.262;2022-08-19T11:42:04;3.30;;;3.10;;
3783;SDS011;1907;49.238;9.262;2022-08-19T11:44:49;3.47;;;3.37;;
3783;SDS011;1907;49.238;9.262;2022-08-19T11:47:15;3.90;;;3.70;;
3783;SDS011;1907;49.238;9.262;2022-08-19T11:49:41;4.00;;;3.80;;
3783;SDS011;1907;49.238;9.262;2022-08-19T11:52:07;3.73;;;3.30;;
3783;SDS011;1907;49.238;9.262;2022-08-19T11:54:33;3.90;;;3.70;;
3783;SDS011;1907;49.238;9.262;2022-08-19T11:56:58;3.30;;;3.20;;
3783;SDS011;1907;49.238;9.262;2022-08-19T11:59:26;4.03;;;3.73;;
3783;SDS011;1907;49.238;9.262;2022-08-19T12:01:52;3.80;;;3.57;;
3783;SDS011;1907;49.238;9.262;2022-08-19T12:04:17;4.63;;;4.43;;
3783;SDS011;1907;49.238;9.262;2022-08-19T12:06:43;4.10;;;3.80;;
3783;SDS011;1907;49.238;9.262;2022-08-19T12:09:09;5.77;;;3.63;;
3783;SDS011;1907;49.238;9.262;2022-08-19T12:11:36;3.20;;;3.10;;
3783;SDS011;1907;49.238;9.262;2022-08-19T12:14:03;4.30;;;4.00;;
3783;SDS011;1907;49.238;9.262;2022-08-19T12:16:29;3.00;;;2.90;;
3783;SDS011;1907;49.238;9.262;2022-08-19T12:18:56;3.60;;;3.43;;
3783;SDS011;1907;49.238;9.262;2022-08-19T12:21:24;3.50;;;3.30;;
3783;SDS011;1907;49.238;9.262;2022-08-19T12:23:55;3.10;;;2.90;;
3783;SDS011;1907;49.238;9.262;2022-08-19T12:26:22;3.77;;;3.47;;
3783;SDS011;1907;49.238;9.262;2022-08-19T12:28:48;7.43;;;2.83;;
3783;SDS011;1907;49.238;9.262;2022-08-19T12:31:14;3.00;;;2.90;;
3783;SDS011;1907;49.238;9.262;2022-08-19T12:33:40;3.33;;;3.23;;
3783;SDS011;1907;49.238;9.262;2022-08-19T12:36:07;3.53;;;3.33;;
3783;SDS011;1907;49.238;9.262;2022-08-19T12:38:35;2.73;;;2.63;;
3783;SDS011;1907;49.238;9.262;2022-08-19T12:41:01;2.57;;;2.47;;
3783;SDS011;1907;49.238;9.262;2022-08-19T12:43:32;4.07;;;3.97;;
3783;SDS011;1907;49.238;9.262;2022-08-19T12:46:02;3.13;;;3.03;;
3783;SDS011;1907;49.238;9.262;2022-08-19T12:48:29;3.90;;;2.73;;
3783;SDS011;1907;49.238;9.262;2022-08-19T12:50:55;3.50;;;3.40;;
3783;SDS011;1907;49.238;9.262;2022-08-19T12:53:24;3.27;;;2.97;;
3783;SDS011;1907;49.238;9.262;2022-08-19T12:55:56;2.50;;;2.40;;
3783;SDS011;1907;49.238;9.262;2022-08-19T12:58:24;4.60;;;2.97;;
3783;SDS011;1907;49.238;9.262;2022-08-19T13:00:51;5.90;;;3.07;;
3783;SDS011;1907;49.238;9.262;2022-08-19T13:03:16;3.40;;;3.30;;
3783;SDS011;1907;49.238;9.262;2022-08-19T13:05:42;3.10;;;3.00;;
3783;SDS011;1907;49.238;9.262;2022-08-19T13:08:08;3.03;;;2.93;;
3783;SDS011;1907;49.238;9.262;2022-08-19T13:10:34;3.43;;;3.33;;
3783;SDS011;1907;49.238;9.262;2022-08-19T13:13:02;3.70;;;3.50;;
3783;SDS011;1907;49.238;9.262;2022-08-19T13:15:32;2.73;;;2.50;;
3783;SDS011;1907;49.238;9.262;2022-08-19T13:18:04;3.47;;;3.37;;
3783;SDS011;1907;49.238;9.262;2022-08-19T13:20:30;2.93;;;2.83;;
3783;SDS011;1907;49.238;9.262;2022-08-19T13:22:56;3.57;;;3.37;;
3783;SDS011;1907;49.238;9.262;2022-08-19T13:25:22;3.60;;;3.40;;
3783;SDS011;1907;49.238;9.262;2022-08-19T13:27:48;4.10;;;3.90;;
3783;SDS011;1907;49.238;9.262;2022-08-19T13:30:16;3.20;;;3.10;;
3783;SDS011;1907;49.238;9.262;2022-08-19T13:33:01;3.80;;;3.60;;
3783;SDS011;1907;49.238;9.262;2022-08-19T13:35:36;2.93;;;2.83;;
3783;SDS011;1907;49.238;9.262;2022-08-19T13:38:22;3.77;;;3.60;;
3783;SDS011;1907;49.238;9.262;2022-08-19T13:40:48;3.63;;;3.53;;
3783;SDS011;1907;49.238;9.262;2022-08-19T13:43:16;3.67;;;3.47;;
3783;SDS011;1907;49.238;9.262;2022-08-19T13:45:44;3.37;;;3.27;;
3783;SDS011;1907;49.238;9.262;2022-08-19T13:48:09;4.53;;;3.97;;
3783;SDS011;1907;49.238;9.262;2022-08-19T13:50:39;5.63;;;5.10;;
3783;SDS011;1907;49.238;9.262;2022-08-19T13:53:06;8.23;;;5.63;;
3783;SDS011;1907;49.238;9.262;2022-08-19T13:55:33;4.10;;;3.80;;
3783;SDS011;1907;49.238;9.262;2022-08-19T13:58:00;4.00;;;3.90;;
3783;SDS011;1907;49.238;9.262;2022-08-19T14:00:30;3.83;;;3.70;;
3783;SDS011;1907;49.238;9.262;2022-08-19T14:02:58;4.37;;;4.07;;
3783;SDS011;1907;49.238;9.262;2022-08-19T14:05:25;7.30;;;4.10;;
3783;SDS011;1907;49.238;9.262;2022-08-19T14:07:53;5.27;;;4.97;;
3783;SDS011;1907;49.238;9.262;2022-08-19T14:10:19;4.80;;;4.60;;
3783;SDS011;1907;49.238;9.262;2022-08-19T14:12:46;4.33;;;3.97;;
3783;SDS011;1907;49.238;9.262;2022-08-19T14:15:13;4.00;;;3.73;;
3783;SDS011;1907;49.238;9.262;2022-08-19T14:17:40;3.80;;;3.60;;
3783;SDS011;1907;49.238;9.262;2022-08-19T14:20:08;4.20;;;4.00;;
3783;SDS011;1907;49.238;9.262;2022-08-19T14:22:39;4.03;;;3.83;;
3783;SDS011;1907;49.238;9.262;2022-08-19T14:25:06;4.33;;;4.10;;
3783;SDS011;1907;49.238;9.262;2022-08-19T14:27:37;4.97;;;4.83;;
3783;SDS011;1907;49.238;9.262;2022-08-19T14:30:04;4.90;;;4.70;;
3783;SDS011;1907;49.238;9.262;2022-08-19T14:32:31;4.50;;;4.30;;
3783;SDS011;1907;49.238;9.262;2022-08-19T14:34:58;3.93;;;3.83;;
3783;SDS011;1907;49.238;9.262;2022-08-19T14:37:23;5.10;;;4.90;;
3783;SDS011;1907;49.238;9.262;2022-08-19T14:39:49;5.53;;;5.13;;
3783;SDS011;1907;49.238;9.262;2022-08-19T14:42:14;5.60;;;5.40;;
3783;SDS011;1907;49.238;9.262;2022-08-19T14:44:40;6.10;;;5.90;;
3783;SDS011;1907;49.238;9.262;2022-08-19T14:47:07;5.50;;;5.30;;
3783;SDS011;1907;49.238;9.262;2022-08-19T14:49:33;6.93;;;6.47;;
3783;SDS011;1907;49.238;9.262;2022-08-19T14:51:59;6.00;;;5.50;;
3783;SDS011;1907;49.238;9.262;2022-08-19T14:54:25;6.00;;;5.77;;
3783;SDS011;1907;49.238;9.262;2022-08-19T14:56:51;6.70;;;6.50;;
3783;SDS011;1907;49.238;9.262;2022-08-19T14:59:16;5.60;;;5.20;;
3783;SDS011;1907;49.238;9.262;2022-08-19T15:01:42;5.50;;;5.30;;
3783;SDS011;1907;49.238;9.262;2022-08-19T15:04:08;14.87;;;5.77;;
3783;SDS011;1907;49.238;9.262;2022-08-19T15:06:34;7.37;;;6.70;;
3783;SDS011;1907;49.238;9.262;2022-08-19T15:09:00;7.47;;;6.73;;
3783;SDS011;1907;49.238;9.262;2022-08-19T15:11:27;6.10;;;5.70;;
3783;SDS011;1907;49.238;9.262;2022-08-19T15:13:54;6.53;;;6.23;;
3783;SDS011;1907;49.238;9.262;2022-08-19T15:16:21;5.30;;;5.10;;
3783;SDS011;1907;49.238;9.262;2022-08-19T15:18:49;4.70;;;4.60;;